sensor_id;sensor_type;location;lat;lon;timestamp;P1;durP1;ratioP1;P2;durP2;ratioP2
25111;SDS011;13092;51.996;4.458;2023-05-07T00:00:46;54.15;;;48.65;;
25111;SDS011;13092;51.996;4.458;2023-05-07T00:03:14;55.53;;;49.80;;
25111;SDS011;13092;51.996;4.458;2023-05-07T00:05:43;54.95;;;49.28;;
25111;SDS011;13092;51.996;4.458;2023-05-07T00:08:11;53.13;;;47.95;;
25111;SDS011;13092;51.996;4.458;2023-05-07T00:10:41;53.83;;;48.22;;
25111;SDS011;13092;51.996;4.458;2023-05-07T00:13:10;52.33;;;47.05;;
25111;SDS011;13092;51.996;4.458;2023-05-07T00:15:40;54.45;;;48.92;;
25111;SDS011;13092;51.996;4.458;2023-05-07T00:18:08;53.03;;;47.53;;
25111;SDS011;13092;51.996;4.458;2023-05-07T00:20:36;52.55;;;47.28;;
25111;SDS011;13092;51.996;4.458;2023-05-07T00:23:06;52.42;;;47.13;;
25111;SDS011;13092;51.996;4.458;2023-05-07T00:25:34;51.25;;;46.15;;
25111;SDS011;13092;51.996;4.458;2023-05-07T00:28:02;53.30;;;47.85;;
25111;SDS011;13092;51.996;4.458;2023-05-07T00:30:31;53.20;;;47.83;;
25111;SDS011;13092;51.996;4.458;2023-05-07T00:33:00;52.85;;;47.55;;
25111;SDS011;13092;51.996;4.458;2023-05-07T00:35:29;54.78;;;49.25;;
25111;SDS011;13092;51.996;4.458;2023-05-07T00:37:57;53.45;;;48.10;;
25111;SDS011;13092;51.996;4.458;2023-05-07T00:40:27;54.78;;;49.25;;
25111;SDS011;13092;51.996;4.458;2023-05-07T00:42:55;51.83;;;46.63;;
25111;SDS011;13092;51.996;4.458;2023-05-07T00:45:25;54.40;;;48.80;;
25111;SDS011;13092;51.996;4.458;2023-05-07T00:47:55;55.20;;;49.35;;
25111;SDS011;13092;51.996;4.458;2023-05-07T00:50:26;54.40;;;48.90;;
25111;SDS011;13092;51.996;4.458;2023-05-07T00:52:58;53.42;;;48.03;;
25111;SDS011;13092;51.996;4.458;2023-05-07T00:55:27;54.15;;;48.65;;
25111;SDS011;13092;51.996;4.458;2023-05-07T00:57:56;52.13;;;47.00;;
25111;SDS011;13092;51.996;4.458;2023-05-07T01:00:24;52.53;;;47.17;;
25111;SDS011;13092;51.996;4.458;2023-05-07T01:02:53;54.92;;;49.20;;
25111;SDS011;13092;51.996;4.458;2023-05-07T01:05:26;54.55;;;48.72;;
25111;SDS011;13092;51.996;4.458;2023-05-07T01:07:58;54.72;;;49.30;;
25111;SDS011;13092;51.996;4.458;2023-05-07T01:10:28;55.28;;;49.38;;
25111;SDS011;13092;51.996;4.458;2023-05-07T01:12:57;54.85;;;49.47;;
25111;SDS011;13092;51.996;4.458;2023-05-07T01:15:29;52.58;;;47.47;;
25111;SDS011;13092;51.996;4.458;2023-05-07T01:17:57;52.50;;;47.35;;
25111;SDS011;13092;51.996;4.458;2023-05-07T01:20:27;52.97;;;47.97;;
25111;SDS011;13092;51.996;4.458;2023-05-07T01:22:57;51.72;;;46.72;;
25111;SDS011;13092;51.996;4.458;2023-05-07T01:25:26;53.03;;;47.80;;
25111;SDS011;13092;51.996;4.458;2023-05-07T01:27:56;52.90;;;47.92;;
25111;SDS011;13092;51.996;4.458;2023-05-07T01:30:26;51.05;;;46.10;;
25111;SDS011;13092;51.996;4.458;2023-05-07T01:32:56;50.75;;;45.85;;
25111;SDS011;13092;51.996;4.458;2023-05-07T01:35:29;52.63;;;47.63;;
25111;SDS011;13092;51.996;4.458;2023-05-07T01:38:03;50.03;;;45.15;;
25111;SDS011;13092;51.996;4.458;2023-05-07T01:40:32;51.90;;;46.90;;
25111;SDS011;13092;51.996;4.458;2023-05-07T01:43:02;51.35;;;46.53;;
25111;SDS011;13092;51.996;4.458;2023-05-07T01:45:30;51.15;;;46.20;;
25111;SDS011;13092;51.996;4.458;2023-05-07T01:48:01;52.17;;;47.28;;
25111;SDS011;13092;51.996;4.458;2023-05-07T01:50:30;51.83;;;46.72;;
25111;SDS011;13092;51.996;4.458;2023-05-07T01:52:59;50.58;;;45.88;;
25111;SDS011;13092;51.996;4.458;2023-05-07T01:55:30;50.78;;;45.90;;
25111;SDS011;13092;51.996;4.458;2023-05-07T01:57:58;50.20;;;45.50;;
25111;SDS011;13092;51.996;4.458;2023-05-07T02:00:26;52.08;;;46.90;;
25111;SDS011;13092;51.996;4.458;2023-05-07T02:02:55;50.97;;;45.97;;
25111;SDS011;13092;51.996;4.458;2023-05-07T02:05:24;52.33;;;47.33;;
25111;SDS011;13092;51.996;4.458;2023-05-07T02:07:52;51.58;;;46.55;;
25111;SDS011;13092;51.996;4.458;2023-05-07T02:10:22;51.92;;;46.88;;
25111;SDS011;13092;51.996;4.458;2023-05-07T02:12:50;51.63;;;46.65;;
25111;SDS011;13092;51.996;4.458;2023-05-07T02:15:19;52.67;;;47.78;;
25111;SDS011;13092;51.996;4.458;2023-05-07T02:17:59;53.47;;;48.42;;
25111;SDS011;13092;51.996;4.458;2023-05-07T02:20:29;53.00;;;48.00;;
25111;SDS011;13092;51.996;4.458;2023-05-07T02:22:57;52.60;;;47.70;;
25111;SDS011;13092;51.996;4.458;2023-05-07T02:25:28;51.78;;;46.80;;
25111;SDS011;13092;51.996;4.458;2023-05-07T02:27:56;53.35;;;47.97;;
25111;SDS011;13092;51.996;4.458;2023-05-07T02:30:25;52.95;;;47.88;;
25111;SDS011;13092;51.996;4.458;2023-05-07T02:32:53;55.28;;;49.47;;
25111;SDS011;13092;51.996;4.458;2023-05-07T02:35:22;53.83;;;48.67;;
25111;SDS011;13092;51.996;4.458;2023-05-07T02:37:52;53.17;;;48.17;;
25111;SDS011;13092;51.996;4.458;2023-05-07T02:40:20;53.90;;;48.80;;
25111;SDS011;13092;51.996;4.458;2023-05-07T02:42:50;54.20;;;49.13;;
25111;SDS011;13092;51.996;4.458;2023-05-07T02:45:18;54.95;;;49.67;;
25111;SDS011;13092;51.996;4.458;2023-05-07T02:47:46;53.55;;;48.55;;
25111;SDS011;13092;51.996;4.458;2023-05-07T02:50:15;53.28;;;48.22;;
25111;SDS011;13092;51.996;4.458;2023-05-07T02:52:46;53.63;;;48.55;;
25111;SDS011;13092;51.996;4.458;2023-05-07T02:55:14;53.72;;;48.45;;
25111;SDS011;13092;51.996;4.458;2023-05-07T02:57:42;54.13;;;49.13;;
25111;SDS011;13092;51.996;4.458;2023-05-07T03:00:13;54.03;;;48.65;;
25111;SDS011;13092;51.996;4.458;2023-05-07T03:02:43;52.65;;;47.60;;
25111;SDS011;13092;51.996;4.458;2023-05-07T03:05:11;52.70;;;47.58;;
25111;SDS011;13092;51.996;4.458;2023-05-07T03:07:40;53.17;;;48.10;;
25111;SDS011;13092;51.996;4.458;2023-05-07T03:10:11;52.83;;;47.70;;
25111;SDS011;13092;51.996;4.458;2023-05-07T03:12:39;54.22;;;48.97;;
25111;SDS011;13092;51.996;4.458;2023-05-07T03:15:12;52.58;;;47.67;;
25111;SDS011;13092;51.996;4.458;2023-05-07T03:17:40;52.20;;;47.35;;
25111;SDS011;13092;51.996;4.458;2023-05-07T03:20:09;52.58;;;47.65;;
25111;SDS011;13092;51.996;4.458;2023-05-07T03:22:39;52.28;;;47.28;;
25111;SDS011;13092;51.996;4.458;2023-05-07T03:25:08;52.70;;;47.55;;
25111;SDS011;13092;51.996;4.458;2023-05-07T03:27:37;52.25;;;47.38;;
25111;SDS011;13092;51.996;4.458;2023-05-07T03:30:08;51.08;;;46.25;;
25111;SDS011;13092;51.996;4.458;2023-05-07T03:32:41;51.55;;;46.90;;
25111;SDS011;13092;51.996;4.458;2023-05-07T03:35:10;52.60;;;47.80;;
25111;SDS011;13092;51.996;4.458;2023-05-07T03:37:38;53.28;;;48.30;;
25111;SDS011;13092;51.996;4.458;2023-05-07T03:40:07;51.40;;;46.70;;
25111;SDS011;13092;51.996;4.458;2023-05-07T03:42:39;51.08;;;46.28;;
25111;SDS011;13092;51.996;4.458;2023-05-07T03:45:10;51.08;;;46.28;;
25111;SDS011;13092;51.996;4.458;2023-05-07T03:47:38;51.20;;;46.50;;
25111;SDS011;13092;51.996;4.458;2023-05-07T03:50:10;50.50;;;45.92;;
25111;SDS011;13092;51.996;4.458;2023-05-07T03:52:39;49.83;;;45.42;;
25111;SDS011;13092;51.996;4.458;2023-05-07T03:55:10;48.75;;;44.33;;
25111;SDS011;13092;51.996;4.458;2023-05-07T03:57:39;50.25;;;45.40;;
25111;SDS011;13092;51.996;4.458;2023-05-07T04:00:07;48.97;;;44.47;;
25111;SDS011;13092;51.996;4.458;2023-05-07T04:02:36;49.95;;;45.30;;
25111;SDS011;13092;51.996;4.458;2023-05-07T04:05:05;50.90;;;46.30;;
25111;SDS011;13092;51.996;4.458;2023-05-07T04:07:35;49.53;;;44.83;;
25111;SDS011;13092;51.996;4.458;2023-05-07T04:10:03;50.50;;;45.70;;
25111;SDS011;13092;51.996;4.458;2023-05-07T04:12:32;51.13;;;46.42;;
25111;SDS011;13092;51.996;4.458;2023-05-07T04:15:01;50.20;;;45.63;;
25111;SDS011;13092;51.996;4.458;2023-05-07T04:17:30;48.55;;;44.28;;
25111;SDS011;13092;51.996;4.458;2023-05-07T04:19:58;48.28;;;43.45;;
25111;SDS011;13092;51.996;4.458;2023-05-07T04:22:26;47.95;;;43.55;;
25111;SDS011;13092;51.996;4.458;2023-05-07T04:24:56;49.20;;;44.75;;
25111;SDS011;13092;51.996;4.458;2023-05-07T04:27:24;48.53;;;43.90;;
25111;SDS011;13092;51.996;4.458;2023-05-07T04:29:54;46.97;;;42.63;;
25111;SDS011;13092;51.996;4.458;2023-05-07T04:32:23;47.67;;;43.35;;
25111;SDS011;13092;51.996;4.458;2023-05-07T04:34:51;48.58;;;44.38;;
25111;SDS011;13092;51.996;4.458;2023-05-07T04:37:20;47.88;;;43.47;;
25111;SDS011;13092;51.996;4.458;2023-05-07T04:39:48;48.65;;;43.92;;
25111;SDS011;13092;51.996;4.458;2023-05-07T04:42:20;46.45;;;42.25;;
25111;SDS011;13092;51.996;4.458;2023-05-07T04:44:52;47.63;;;43.22;;
25111;SDS011;13092;51.996;4.458;2023-05-07T04:47:20;47.40;;;43.15;;
25111;SDS011;13092;51.996;4.458;2023-05-07T04:49:49;46.72;;;42.42;;
25111;SDS011;13092;51.996;4.458;2023-05-07T04:52:20;47.35;;;43.15;;
25111;SDS011;13092;51.996;4.458;2023-05-07T04:54:51;48.25;;;44.05;;
25111;SDS011;13092;51.996;4.458;2023-05-07T04:57:20;47.25;;;43.15;;
25111;SDS011;13092;51.996;4.458;2023-05-07T04:59:49;47.35;;;43.20;;
25111;SDS011;13092;51.996;4.458;2023-05-07T05:02:17;46.78;;;42.53;;
25111;SDS011;13092;51.996;4.458;2023-05-07T05:04:46;46.67;;;42.47;;
25111;SDS011;13092;51.996;4.458;2023-05-07T05:07:14;47.42;;;43.13;;
25111;SDS011;13092;51.996;4.458;2023-05-07T05:09:42;47.67;;;43.47;;
25111;SDS011;13092;51.996;4.458;2023-05-07T05:12:11;47.22;;;42.97;;
25111;SDS011;13092;51.996;4.458;2023-05-07T05:14:40;47.05;;;42.85;;
25111;SDS011;13092;51.996;4.458;2023-05-07T05:17:09;44.95;;;40.95;;
25111;SDS011;13092;51.996;4.458;2023-05-07T05:19:37;46.13;;;42.20;;
25111;SDS011;13092;51.996;4.458;2023-05-07T05:22:06;45.72;;;41.65;;
25111;SDS011;13092;51.996;4.458;2023-05-07T05:24:34;47.05;;;42.65;;
25111;SDS011;13092;51.996;4.458;2023-05-07T05:27:02;46.67;;;42.58;;
25111;SDS011;13092;51.996;4.458;2023-05-07T05:29:31;44.67;;;40.78;;
25111;SDS011;13092;51.996;4.458;2023-05-07T05:32:01;46.33;;;42.22;;
25111;SDS011;13092;51.996;4.458;2023-05-07T05:34:29;47.03;;;42.63;;
25111;SDS011;13092;51.996;4.458;2023-05-07T05:36:59;46.00;;;41.95;;
25111;SDS011;13092;51.996;4.458;2023-05-07T05:39:27;45.33;;;41.40;;
25111;SDS011;13092;51.996;4.458;2023-05-07T05:41:56;47.80;;;43.42;;
25111;SDS011;13092;51.996;4.458;2023-05-07T05:44:24;47.28;;;43.05;;
25111;SDS011;13092;51.996;4.458;2023-05-07T05:46:52;46.63;;;42.58;;
25111;SDS011;13092;51.996;4.458;2023-05-07T05:49:25;46.88;;;42.78;;
25111;SDS011;13092;51.996;4.458;2023-05-07T05:51:53;46.75;;;42.67;;
25111;SDS011;13092;51.996;4.458;2023-05-07T05:54:22;47.10;;;43.00;;
25111;SDS011;13092;51.996;4.458;2023-05-07T05:56:50;47.42;;;43.25;;
25111;SDS011;13092;51.996;4.458;2023-05-07T05:59:18;46.60;;;42.50;;
25111;SDS011;13092;51.996;4.458;2023-05-07T06:01:47;46.63;;;42.53;;
25111;SDS011;13092;51.996;4.458;2023-05-07T06:04:15;46.00;;;41.70;;
25111;SDS011;13092;51.996;4.458;2023-05-07T06:06:45;47.03;;;42.83;;
25111;SDS011;13092;51.996;4.458;2023-05-07T06:09:13;46.35;;;42.15;;
25111;SDS011;13092;51.996;4.458;2023-05-07T06:11:41;47.13;;;42.92;;
25111;SDS011;13092;51.996;4.458;2023-05-07T06:14:10;47.15;;;42.90;;
25111;SDS011;13092;51.996;4.458;2023-05-07T06:16:38;47.40;;;43.05;;
25111;SDS011;13092;51.996;4.458;2023-05-07T06:19:06;47.40;;;43.00;;
25111;SDS011;13092;51.996;4.458;2023-05-07T06:21:35;46.97;;;42.85;;
25111;SDS011;13092;51.996;4.458;2023-05-07T06:24:05;47.03;;;42.72;;
25111;SDS011;13092;51.996;4.458;2023-05-07T06:26:34;47.25;;;42.95;;
25111;SDS011;13092;51.996;4.458;2023-05-07T06:29:02;47.70;;;43.25;;
25111;SDS011;13092;51.996;4.458;2023-05-07T06:31:30;47.08;;;42.72;;
25111;SDS011;13092;51.996;4.458;2023-05-07T06:33:59;45.33;;;41.33;;
25111;SDS011;13092;51.996;4.458;2023-05-07T06:36:28;47.20;;;42.90;;
25111;SDS011;13092;51.996;4.458;2023-05-07T06:38:57;47.05;;;42.78;;
25111;SDS011;13092;51.996;4.458;2023-05-07T06:41:29;47.58;;;43.17;;
25111;SDS011;13092;51.996;4.458;2023-05-07T06:43:57;46.42;;;42.28;;
25111;SDS011;13092;51.996;4.458;2023-05-07T06:46:25;46.33;;;41.92;;
25111;SDS011;13092;51.996;4.458;2023-05-07T06:48:54;46.28;;;41.95;;
25111;SDS011;13092;51.996;4.458;2023-05-07T06:51:23;45.42;;;41.33;;
25111;SDS011;13092;51.996;4.458;2023-05-07T06:53:52;46.65;;;42.47;;
25111;SDS011;13092;51.996;4.458;2023-05-07T06:56:21;46.40;;;42.17;;
25111;SDS011;13092;51.996;4.458;2023-05-07T06:58:50;48.30;;;43.78;;
25111;SDS011;13092;51.996;4.458;2023-05-07T07:01:19;48.53;;;43.60;;
25111;SDS011;13092;51.996;4.458;2023-05-07T07:03:47;46.38;;;42.17;;
25111;SDS011;13092;51.996;4.458;2023-05-07T07:06:17;48.53;;;43.92;;
25111;SDS011;13092;51.996;4.458;2023-05-07T07:08:46;47.33;;;43.08;;
25111;SDS011;13092;51.996;4.458;2023-05-07T07:11:15;47.03;;;42.83;;
25111;SDS011;13092;51.996;4.458;2023-05-07T07:13:44;49.05;;;44.55;;
25111;SDS011;13092;51.996;4.458;2023-05-07T07:16:16;47.33;;;42.80;;
25111;SDS011;13092;51.996;4.458;2023-05-07T07:18:45;46.40;;;42.13;;
25111;SDS011;13092;51.996;4.458;2023-05-07T07:21:13;49.15;;;44.60;;
25111;SDS011;13092;51.996;4.458;2023-05-07T07:23:41;47.58;;;43.13;;
25111;SDS011;13092;51.996;4.458;2023-05-07T07:26:09;46.58;;;42.38;;
25111;SDS011;13092;51.996;4.458;2023-05-07T07:28:41;47.33;;;43.13;;
25111;SDS011;13092;51.996;4.458;2023-05-07T07:31:12;46.13;;;41.92;;
25111;SDS011;13092;51.996;4.458;2023-05-07T07:33:42;46.22;;;42.00;;
25111;SDS011;13092;51.996;4.458;2023-05-07T07:36:11;45.58;;;41.53;;
25111;SDS011;13092;51.996;4.458;2023-05-07T07:38:39;45.85;;;41.47;;
25111;SDS011;13092;51.996;4.458;2023-05-07T07:41:09;46.03;;;41.80;;
25111;SDS011;13092;51.996;4.458;2023-05-07T07:43:37;45.85;;;41.60;;
25111;SDS011;13092;51.996;4.458;2023-05-07T07:46:07;45.92;;;41.63;;
25111;SDS011;13092;51.996;4.458;2023-05-07T07:48:36;46.03;;;41.67;;
25111;SDS011;13092;51.996;4.458;2023-05-07T07:51:06;44.38;;;40.25;;
25111;SDS011;13092;51.996;4.458;2023-05-07T07:53:34;45.80;;;41.47;;
25111;SDS011;13092;51.996;4.458;2023-05-07T07:56:03;47.10;;;42.80;;
25111;SDS011;13092;51.996;4.458;2023-05-07T07:58:31;45.33;;;41.25;;
25111;SDS011;13092;51.996;4.458;2023-05-07T08:01:04;47.40;;;43.00;;
25111;SDS011;13092;51.996;4.458;2023-05-07T08:03:32;46.05;;;41.85;;
25111;SDS011;13092;51.996;4.458;2023-05-07T08:06:00;47.00;;;42.60;;
25111;SDS011;13092;51.996;4.458;2023-05-07T08:08:30;47.67;;;43.25;;
25111;SDS011;13092;51.996;4.458;2023-05-07T08:10:58;46.83;;;42.53;;
25111;SDS011;13092;51.996;4.458;2023-05-07T08:13:28;48.15;;;43.50;;
25111;SDS011;13092;51.996;4.458;2023-05-07T08:16:00;47.33;;;42.83;;
25111;SDS011;13092;51.996;4.458;2023-05-07T08:18:28;47.10;;;42.50;;
25111;SDS011;13092;51.996;4.458;2023-05-07T08:20:57;47.53;;;43.03;;
25111;SDS011;13092;51.996;4.458;2023-05-07T08:23:25;48.65;;;44.13;;
25111;SDS011;13092;51.996;4.458;2023-05-07T08:25:55;48.30;;;43.70;;
25111;SDS011;13092;51.996;4.458;2023-05-07T08:28:23;48.45;;;43.95;;
25111;SDS011;13092;51.996;4.458;2023-05-07T08:30:52;49.70;;;45.20;;
25111;SDS011;13092;51.996;4.458;2023-05-07T08:33:20;49.65;;;45.25;;
25111;SDS011;13092;51.996;4.458;2023-05-07T08:35:49;49.95;;;45.40;;
25111;SDS011;13092;51.996;4.458;2023-05-07T08:38:17;51.03;;;46.35;;
25111;SDS011;13092;51.996;4.458;2023-05-07T08:40:47;50.83;;;46.33;;
25111;SDS011;13092;51.996;4.458;2023-05-07T08:43:24;52.40;;;47.60;;
25111;SDS011;13092;51.996;4.458;2023-05-07T08:45:54;51.15;;;46.35;;
25111;SDS011;13092;51.996;4.458;2023-05-07T08:48:27;53.03;;;48.25;;
25111;SDS011;13092;51.996;4.458;2023-05-07T08:50:57;53.28;;;48.38;;
25111;SDS011;13092;51.996;4.458;2023-05-07T08:53:25;51.45;;;46.85;;
25111;SDS011;13092;51.996;4.458;2023-05-07T08:55:54;52.42;;;47.67;;
25111;SDS011;13092;51.996;4.458;2023-05-07T08:58:28;52.00;;;47.30;;
25111;SDS011;13092;51.996;4.458;2023-05-07T09:00:56;53.28;;;48.47;;
25111;SDS011;13092;51.996;4.458;2023-05-07T09:03:26;52.63;;;48.00;;
25111;SDS011;13092;51.996;4.458;2023-05-07T09:05:56;55.45;;;50.58;;
25111;SDS011;13092;51.996;4.458;2023-05-07T09:08:24;57.38;;;52.47;;
25111;SDS011;13092;51.996;4.458;2023-05-07T09:10:56;56.25;;;51.22;;
25111;SDS011;13092;51.996;4.458;2023-05-07T09:13:24;56.28;;;51.20;;
25111;SDS011;13092;51.996;4.458;2023-05-07T09:15:56;56.45;;;51.25;;
25111;SDS011;13092;51.996;4.458;2023-05-07T09:18:26;59.17;;;53.97;;
25111;SDS011;13092;51.996;4.458;2023-05-07T09:20:54;57.67;;;52.47;;
25111;SDS011;13092;51.996;4.458;2023-05-07T09:23:23;59.40;;;53.92;;
25111;SDS011;13092;51.996;4.458;2023-05-07T09:25:53;59.83;;;54.40;;
25111;SDS011;13092;51.996;4.458;2023-05-07T09:28:28;61.40;;;55.90;;
25111;SDS011;13092;51.996;4.458;2023-05-07T09:31:01;62.65;;;56.92;;
25111;SDS011;13092;51.996;4.458;2023-05-07T09:33:29;62.65;;;57.15;;
25111;SDS011;13092;51.996;4.458;2023-05-07T09:35:57;62.35;;;57.00;;
25111;SDS011;13092;51.996;4.458;2023-05-07T09:38:25;61.72;;;56.45;;
25111;SDS011;13092;51.996;4.458;2023-05-07T09:41:06;63.88;;;58.30;;
25111;SDS011;13092;51.996;4.458;2023-05-07T09:43:37;66.03;;;60.42;;
25111;SDS011;13092;51.996;4.458;2023-05-07T09:46:08;66.28;;;61.00;;
25111;SDS011;13092;51.996;4.458;2023-05-07T09:48:41;69.57;;;64.05;;
25111;SDS011;13092;51.996;4.458;2023-05-07T09:51:16;68.20;;;62.70;;
25111;SDS011;13092;51.996;4.458;2023-05-07T09:53:50;69.18;;;63.75;;
25111;SDS011;13092;51.996;4.458;2023-05-07T09:56:20;67.18;;;61.78;;
25111;SDS011;13092;51.996;4.458;2023-05-07T09:58:52;67.50;;;61.80;;
25111;SDS011;13092;51.996;4.458;2023-05-07T10:01:23;68.43;;;62.58;;
25111;SDS011;13092;51.996;4.458;2023-05-07T10:03:55;69.25;;;63.70;;
25111;SDS011;13092;51.996;4.458;2023-05-07T10:06:25;72.10;;;66.25;;
25111;SDS011;13092;51.996;4.458;2023-05-07T10:08:53;73.63;;;67.53;;
25111;SDS011;13092;51.996;4.458;2023-05-07T10:11:25;75.15;;;69.15;;
25111;SDS011;13092;51.996;4.458;2023-05-07T10:13:54;74.78;;;68.88;;
25111;SDS011;13092;51.996;4.458;2023-05-07T10:16:27;76.18;;;70.20;;
25111;SDS011;13092;51.996;4.458;2023-05-07T10:19:02;76.47;;;70.68;;
25111;SDS011;13092;51.996;4.458;2023-05-07T10:21:32;75.15;;;69.45;;
25111;SDS011;13092;51.996;4.458;2023-05-07T10:24:04;76.95;;;71.13;;
25111;SDS011;13092;51.996;4.458;2023-05-07T10:26:40;74.80;;;69.03;;
25111;SDS011;13092;51.996;4.458;2023-05-07T10:29:12;75.90;;;70.40;;
25111;SDS011;13092;51.996;4.458;2023-05-07T10:31:57;68.32;;;63.60;;
25111;SDS011;13092;51.996;4.458;2023-05-07T10:34:53;67.35;;;62.55;;
25111;SDS011;13092;51.996;4.458;2023-05-07T10:37:24;62.85;;;58.65;;
25111;SDS011;13092;51.996;4.458;2023-05-07T10:39:53;62.80;;;58.47;;
25111;SDS011;13092;51.996;4.458;2023-05-07T10:42:26;55.85;;;52.33;;
25111;SDS011;13092;51.996;4.458;2023-05-07T10:44:55;54.53;;;51.17;;
25111;SDS011;13092;51.996;4.458;2023-05-07T10:47:25;56.33;;;52.83;;
25111;SDS011;13092;51.996;4.458;2023-05-07T10:58:55;38.13;;;35.55;;
25111;SDS011;13092;51.996;4.458;2023-05-07T11:02:00;34.50;;;32.10;;
25111;SDS011;13092;51.996;4.458;2023-05-07T11:04:36;22.55;;;20.65;;
25111;SDS011;13092;51.996;4.458;2023-05-07T11:07:25;11.52;;;8.48;;
25111;SDS011;13092;51.996;4.458;2023-05-07T11:09:56;14.38;;;7.18;;
25111;SDS011;13092;51.996;4.458;2023-05-07T11:12:46;10.73;;;6.68;;
25111;SDS011;13092;51.996;4.458;2023-05-07T11:18:03;10.60;;;6.03;;
25111;SDS011;13092;51.996;4.458;2023-05-07T11:20:46;9.10;;;4.55;;
25111;SDS011;13092;51.996;4.458;2023-05-07T11:26:41;11.20;;;4.90;;
25111;SDS011;13092;51.996;4.458;2023-05-07T11:29:12;9.18;;;5.40;;
25111;SDS011;13092;51.996;4.458;2023-05-07T11:31:51;9.98;;;6.10;;
25111;SDS011;13092;51.996;4.458;2023-05-07T11:34:23;10.18;;;5.63;;
25111;SDS011;13092;51.996;4.458;2023-05-07T11:36:58;13.80;;;5.50;;
25111;SDS011;13092;51.996;4.458;2023-05-07T11:39:30;14.35;;;6.93;;
25111;SDS011;13092;51.996;4.458;2023-05-07T11:42:02;8.73;;;5.30;;
25111;SDS011;13092;51.996;4.458;2023-05-07T11:44:43;12.43;;;6.40;;
25111;SDS011;13092;51.996;4.458;2023-05-07T11:47:19;10.10;;;6.85;;
25111;SDS011;13092;51.996;4.458;2023-05-07T11:49:51;11.45;;;6.72;;
25111;SDS011;13092;51.996;4.458;2023-05-07T11:52:22;11.77;;;7.03;;
25111;SDS011;13092;51.996;4.458;2023-05-07T11:54:59;10.82;;;6.50;;
25111;SDS011;13092;51.996;4.458;2023-05-07T11:57:39;9.93;;;6.72;;
25111;SDS011;13092;51.996;4.458;2023-05-07T12:00:10;10.93;;;7.05;;
25111;SDS011;13092;51.996;4.458;2023-05-07T12:02:39;13.25;;;7.75;;
25111;SDS011;13092;51.996;4.458;2023-05-07T12:05:08;11.63;;;7.03;;
25111;SDS011;13092;51.996;4.458;2023-05-07T12:07:41;10.70;;;7.38;;
25111;SDS011;13092;51.996;4.458;2023-05-07T12:10:10;12.23;;;7.13;;
25111;SDS011;13092;51.996;4.458;2023-05-07T12:12:47;10.90;;;6.85;;
25111;SDS011;13092;51.996;4.458;2023-05-07T12:15:22;10.20;;;6.63;;
25111;SDS011;13092;51.996;4.458;2023-05-07T12:17:50;12.38;;;6.00;;
25111;SDS011;13092;51.996;4.458;2023-05-07T12:20:21;10.48;;;7.03;;
25111;SDS011;13092;51.996;4.458;2023-05-07T12:22:53;11.02;;;7.47;;
25111;SDS011;13092;51.996;4.458;2023-05-07T12:25:25;18.73;;;9.98;;
25111;SDS011;13092;51.996;4.458;2023-05-07T12:27:53;19.38;;;12.20;;
25111;SDS011;13092;51.996;4.458;2023-05-07T12:30:25;19.75;;;11.93;;
25111;SDS011;13092;51.996;4.458;2023-05-07T12:32:53;20.92;;;12.65;;
25111;SDS011;13092;51.996;4.458;2023-05-07T12:35:28;20.38;;;13.43;;
25111;SDS011;13092;51.996;4.458;2023-05-07T12:38:03;21.48;;;13.65;;
25111;SDS011;13092;51.996;4.458;2023-05-07T12:40:35;24.63;;;15.82;;
25111;SDS011;13092;51.996;4.458;2023-05-07T12:43:05;21.83;;;15.30;;
25111;SDS011;13092;51.996;4.458;2023-05-07T12:45:36;21.20;;;16.42;;
25111;SDS011;13092;51.996;4.458;2023-05-07T12:48:06;22.20;;;17.45;;
25111;SDS011;13092;51.996;4.458;2023-05-07T12:50:36;26.13;;;22.38;;
25111;SDS011;13092;51.996;4.458;2023-05-07T12:53:06;33.65;;;30.73;;
25111;SDS011;13092;51.996;4.458;2023-05-07T12:55:40;50.97;;;47.22;;
25111;SDS011;13092;51.996;4.458;2023-05-07T12:58:15;55.80;;;51.80;;
25111;SDS011;13092;51.996;4.458;2023-05-07T13:00:44;61.03;;;56.55;;
25111;SDS011;13092;51.996;4.458;2023-05-07T13:03:20;63.55;;;59.08;;
25111;SDS011;13092;51.996;4.458;2023-05-07T13:05:50;65.82;;;61.15;;
25111;SDS011;13092;51.996;4.458;2023-05-07T13:08:26;72.90;;;67.32;;
25111;SDS011;13092;51.996;4.458;2023-05-07T13:10:57;73.65;;;68.15;;
25111;SDS011;13092;51.996;4.458;2023-05-07T13:13:26;72.38;;;66.68;;
25111;SDS011;13092;51.996;4.458;2023-05-07T13:15:59;74.53;;;68.78;;
25111;SDS011;13092;51.996;4.458;2023-05-07T13:18:30;78.90;;;72.35;;
25111;SDS011;13092;51.996;4.458;2023-05-07T13:21:02;74.95;;;68.55;;
25111;SDS011;13092;51.996;4.458;2023-05-07T13:23:34;75.97;;;69.25;;
25111;SDS011;13092;51.996;4.458;2023-05-07T13:26:04;78.18;;;70.95;;
25111;SDS011;13092;51.996;4.458;2023-05-07T13:28:54;76.00;;;69.10;;
25111;SDS011;13092;51.996;4.458;2023-05-07T13:31:22;77.90;;;70.65;;
25111;SDS011;13092;51.996;4.458;2023-05-07T13:33:50;74.22;;;67.18;;
25111;SDS011;13092;51.996;4.458;2023-05-07T13:36:22;78.43;;;71.18;;
25111;SDS011;13092;51.996;4.458;2023-05-07T13:38:52;76.25;;;69.18;;
25111;SDS011;13092;51.996;4.458;2023-05-07T13:41:24;76.15;;;69.15;;
25111;SDS011;13092;51.996;4.458;2023-05-07T13:43:53;78.53;;;71.10;;
25111;SDS011;13092;51.996;4.458;2023-05-07T13:46:22;76.28;;;69.47;;
25111;SDS011;13092;51.996;4.458;2023-05-07T13:48:52;78.10;;;71.15;;
25111;SDS011;13092;51.996;4.458;2023-05-07T13:51:21;76.80;;;70.07;;
25111;SDS011;13092;51.996;4.458;2023-05-07T13:53:53;74.97;;;67.97;;
25111;SDS011;13092;51.996;4.458;2023-05-07T13:56:32;77.40;;;70.68;;
25111;SDS011;13092;51.996;4.458;2023-05-07T13:59:10;79.07;;;72.00;;
25111;SDS011;13092;51.996;4.458;2023-05-07T14:01:59;72.57;;;66.38;;
25111;SDS011;13092;51.996;4.458;2023-05-07T14:04:31;73.43;;;66.72;;
25111;SDS011;13092;51.996;4.458;2023-05-07T14:06:59;71.10;;;64.95;;
25111;SDS011;13092;51.996;4.458;2023-05-07T14:09:29;68.90;;;62.75;;
25111;SDS011;13092;51.996;4.458;2023-05-07T14:11:58;69.45;;;63.05;;
25111;SDS011;13092;51.996;4.458;2023-05-07T14:14:26;69.97;;;63.60;;
25111;SDS011;13092;51.996;4.458;2023-05-07T14:16:57;69.53;;;63.42;;
25111;SDS011;13092;51.996;4.458;2023-05-07T14:19:37;67.07;;;61.40;;
25111;SDS011;13092;51.996;4.458;2023-05-07T14:22:07;66.43;;;61.28;;
25111;SDS011;13092;51.996;4.458;2023-05-07T14:24:37;65.85;;;60.55;;
25111;SDS011;13092;51.996;4.458;2023-05-07T14:27:06;64.05;;;59.20;;
25111;SDS011;13092;51.996;4.458;2023-05-07T14:29:34;63.50;;;58.47;;
25111;SDS011;13092;51.996;4.458;2023-05-07T14:32:02;61.53;;;56.53;;
25111;SDS011;13092;51.996;4.458;2023-05-07T14:34:30;62.83;;;57.75;;
25111;SDS011;13092;51.996;4.458;2023-05-07T14:37:00;63.42;;;58.10;;
25111;SDS011;13092;51.996;4.458;2023-05-07T14:39:28;66.63;;;61.28;;
25111;SDS011;13092;51.996;4.458;2023-05-07T14:41:58;65.57;;;60.13;;
25111;SDS011;13092;51.996;4.458;2023-05-07T14:44:28;66.28;;;60.78;;
25111;SDS011;13092;51.996;4.458;2023-05-07T14:46:57;68.22;;;62.30;;
25111;SDS011;13092;51.996;4.458;2023-05-07T14:49:27;67.80;;;61.80;;
25111;SDS011;13092;51.996;4.458;2023-05-07T14:51:58;67.43;;;61.33;;
25111;SDS011;13092;51.996;4.458;2023-05-07T14:54:27;67.35;;;60.72;;
25111;SDS011;13092;51.996;4.458;2023-05-07T14:56:55;74.07;;;63.83;;